Time;durP1;ratioP1;P1;durP2;ratioP2;P2;SDS_P1;SDS_P2;PMS_P1;PMS_P2;Temp;Humidity;BMP_temperature;BMP_pressure;BME280_temperature;BME280_humidity;BME280_pressure;Samples;Min_cycle;Max_cycle;Signal;HPM_P1;HPM_P2
2023/09/13 08:40:54;;;;;;;6.72;1.90;;;17.20;78.00;;;;;;5046157;28;20057;-78
2023/09/13 08:43:23;;;;;;;7.83;1.80;;;17.20;78.10;;;;;;5036584;28;20052;-80
2023/09/13 08:45:52;;;;;;;7.75;1.70;;;17.20;78.20;;;;;;5017277;28;20376;-79
2023/09/13 08:48:21;;;;;;;6.53;1.98;;;17.20;78.20;;;;;;5021181;28;20060;-78
2023/09/13 08:50:48;;;;;;;7.43;1.92;;;17.20;78.40;;;;;;5016538;28;20046;-78
2023/09/13 08:53:17;;;;;;;7.57;1.75;;;17.30;78.40;;;;;;5014754;28;20043;-78
2023/09/13 08:55:46;;;;;;;7.53;1.80;;;17.40;78.40;;;;;;4929075;28;21155;-78
2023/09/13 08:58:13;;;;;;;8.50;1.88;;;17.40;78.30;;;;;;4806659;29;20258;-77
2023/09/13 09:00:46;;;;;;;7.30;1.95;;;17.40;78.20;;;;;;4740484;29;20100;-78
2023/09/13 09:08:18;;;;;;;8.38;2.03;;;17.50;78.30;;;;;;5208929;27;20129;-75
2023/09/13 09:10:46;;;;;;;7.20;1.40;;;17.50;78.40;;;;;;5169701;27;20134;-77
2023/09/13 09:13:13;;;;;;;7.43;1.73;;;17.50;78.50;;;;;;5154263;27;20129;-77
2023/09/13 09:15:41;;;;;;;6.80;1.63;;;17.60;78.50;;;;;;5166361;27;20589;-77
2023/09/13 09:18:12;;;;;;;5.32;1.60;;;17.60;78.50;;;;;;5108679;27;20049;-77
2023/09/13 09:20:39;;;;;;;6.47;1.48;;;17.60;78.20;;;;;;5072042;28;20351;-77
2023/09/13 09:29:03;;;;;;;7.43;1.50;;;17.80;77.60;;;;;;5215338;27;20347;-78
2023/09/13 09:31:30;;;;;;;5.88;1.60;;;17.80;77.50;;;;;;5178763;27;20057;-77
2023/09/13 09:34:04;;;;;;;8.57;1.60;;;17.80;77.30;;;;;;5099963;27;1259170;-77
2023/09/13 09:36:34;;;;;;;8.43;1.90;;;17.80;77.20;;;;;;5122231;27;20500;-77
2023/09/13 09:39:03;;;;;;;7.82;1.48;;;17.80;77.10;;;;;;5089788;28;20282;-77
2023/09/13 09:41:35;;;;;;;6.95;1.45;;;17.80;77.10;;;;;;5094877;27;20077;-77
2023/09/13 09:44:03;;;;;;;6.13;1.52;;;17.90;77.00;;;;;;5097276;28;20084;-79
2023/09/13 09:46:32;;;;;;;7.07;1.65;;;17.90;77.00;;;;;;5091495;27;20098;-80
2023/09/13 09:52:57;;;;;;;4.10;1.30;;;18.00;76.70;;;;;;5066285;27;20274;-80
2023/09/13 09:55:26;;;;;;;7.57;1.40;;;17.90;76.70;;;;;;5110805;27;20133;-80
2023/09/13 10:01:57;;;;;;;4.95;1.30;;;17.90;76.20;;;;;;5108946;27;20082;-80
2023/09/13 10:04:24;;;;;;;6.70;1.40;;;17.90;75.90;;;;;;5116793;27;20165;-80
2023/09/13 10:06:59;;;;;;;4.85;1.23;;;17.80;76.00;;;;;;5117127;27;20360;-80
2023/09/13 10:09:38;;;;;;;5.22;1.20;;;17.90;75.80;;;;;;5126872;27;20076;-80
2023/09/13 10:12:07;;;;;;;5.78;1.60;;;17.90;75.70;;;;;;5109725;27;20056;-81
2023/09/13 10:14:35;;;;;;;6.72;1.48;;;17.90;75.70;;;;;;5089163;28;20155;-79
2023/09/13 10:17:04;;;;;;;8.00;1.70;;;17.90;75.90;;;;;;5118464;27;21073;-80
2023/09/13 10:19:32;;;;;;;6.10;1.58;;;17.90;76.20;;;;;;5110999;27;20265;-79
2023/09/13 10:21:59;;;;;;;4.22;1.27;;;18.00;76.40;;;;;;5112937;27;20142;-80
2023/09/13 10:24:34;;;;;;;6.35;1.55;;;18.00;76.30;;;;;;5119344;27;20043;-79
2023/09/13 10:27:06;;;;;;;5.03;1.30;;;18.00;76.40;;;;;;5108159;27;20086;-79
2023/09/13 10:29:39;;;;;;;5.90;1.57;;;18.00;76.50;;;;;;5110058;27;20144;-80
2023/09/13 10:32:09;;;;;;;6.15;1.33;;;18.00;76.50;;;;;;5009946;28;20410;-79
2023/09/13 10:34:40;;;;;;;6.30;1.60;;;18.00;76.50;;;;;;5097455;28;20057;-80
2023/09/13 10:37:13;;;;;;;6.25;1.30;;;18.00;76.50;;;;;;5085318;28;20055;-78
2023/09/13 10:39:45;;;;;;;7.25;1.50;;;18.00;76.50;;;;;;5071409;28;20041;-80
2023/09/13 10:42:12;;;;;;;7.07;1.50;;;18.00;76.70;;;;;;5051968;28;20054;-80
2023/09/13 10:44:41;;;;;;;5.20;1.45;;;18.00;76.70;;;;;;5069466;28;20339;-79
2023/09/13 10:47:12;;;;;;;6.88;1.67;;;18.00;77.00;;;;;;5072865;28;20068;-80
2023/09/13 10:49:39;;;;;;;7.18;1.40;;;18.00;76.90;;;;;;5071469;28;20056;-80
2023/09/13 10:52:07;;;;;;;8.38;1.48;;;18.00;76.50;;;;;;5064686;28;20060;-80
2023/09/13 10:54:37;;;;;;;7.43;1.50;;;17.90;76.00;;;;;;5054919;28;20132;-80
2023/09/13 10:57:06;;;;;;;4.35;1.00;;;17.90;76.00;;;;;;5070609;28;20714;-80
2023/09/13 10:59:35;;;;;;;5.78;1.30;;;17.80;76.10;;;;;;5069729;28;20896;-80
2023/09/13 11:02:29;;;;;;;5.75;1.40;;;17.90;76.20;;;;;;5070167;28;20136;-80
2023/09/13 11:04:58;;;;;;;6.80;1.60;;;17.90;76.40;;;;;;5070122;28;20051;-79
2023/09/13 11:07:25;;;;;;;6.23;1.30;;;18.00;76.60;;;;;;5086662;28;20084;-80
2023/09/13 11:09:54;;;;;;;6.05;1.70;;;18.00;76.80;;;;;;5069544;28;20256;-80
2023/09/13 11:12:27;;;;;;;6.53;1.38;;;18.00;76.90;;;;;;5086782;28;21063;-80
2023/09/13 11:14:54;;;;;;;6.65;1.75;;;18.00;76.90;;;;;;5068122;28;20168;-81
2023/09/13 11:17:40;;;;;;;6.50;1.60;;;18.10;76.90;;;;;;5050429;28;20049;-80
2023/09/13 11:20:24;;;;;;;5.07;1.63;;;18.20;76.50;;;;;;5049836;28;20055;-81
2023/09/13 11:23:08;;;;;;;6.00;1.70;;;18.20;76.20;;;;;;5049430;28;20350;-80
2023/09/13 11:25:37;;;;;;;6.18;1.60;;;18.20;76.10;;;;;;5049398;28;20046;-80
2023/09/13 11:28:09;;;;;;;4.05;1.40;;;18.30;75.70;;;;;;5057311;28;20136;-78
2023/09/13 11:30:50;;;;;;;7.32;1.70;;;18.30;75.60;;;;;;5048545;28;20048;-78
2023/09/13 11:33:19;;;;;;;5.20;1.60;;;18.30;75.60;;;;;;5051895;28;20146;-78
2023/09/13 11:35:46;;;;;;;4.93;1.67;;;18.40;75.50;;;;;;5040368;28;20267;-79
2023/09/13 11:38:13;;;;;;;4.75;1.40;;;18.40;75.10;;;;;;5033727;28;20151;-79
2023/09/13 11:40:47;;;;;;;4.88;1.38;;;18.40;75.30;;;;;;5046548;28;20100;-79
2023/09/13 11:43:19;;;;;;;6.13;1.55;;;18.50;75.50;;;;;;5023328;28;20053;-79
2023/09/13 11:45:48;;;;;;;5.57;1.50;;;18.50;74.70;;;;;;5066490;28;20585;-79
2023/09/13 11:48:22;;;;;;;5.88;1.80;;;18.60;74.70;;;;;;5049147;28;20260;-79
2023/09/13 11:50:52;;;;;;;6.30;1.90;;;18.70;74.60;;;;;;5048604;28;20552;-78
2023/09/13 11:53:27;;;;;;;6.18;1.88;;;18.70;74.30;;;;;;5051235;28;20061;-78
2023/09/13 11:55:56;;;;;;;5.40;1.73;;;18.80;73.50;;;;;;5043247;28;20646;-77
2023/09/13 11:58:34;;;;;;;5.40;1.67;;;18.80;73.10;;;;;;5058261;28;20045;-78
2023/09/13 12:01:03;;;;;;;4.90;1.77;;;18.80;72.70;;;;;;5045865;28;20253;-78
2023/09/13 12:03:35;;;;;;;5.70;1.80;;;18.80;72.20;;;;;;5047048;28;20164;-79
2023/09/13 12:06:03;;;;;;;6.75;1.73;;;18.80;72.20;;;;;;5053930;28;20057;-79
2023/09/13 12:08:31;;;;;;;5.82;1.55;;;18.90;72.20;;;;;;5051967;28;20712;-78
2023/09/13 12:11:01;;;;;;;5.77;1.83;;;19.00;72.10;;;;;;5051140;28;20058;-78
2023/09/13 12:13:41;;;;;;;5.93;1.80;;;19.00;71.80;;;;;;5049971;28;20276;-79
2023/09/13 12:16:08;;;;;;;3.83;1.60;;;19.10;71.90;;;;;;5050308;28;20045;-79
2023/09/13 12:18:37;;;;;;;5.65;1.83;;;19.10;71.60;;;;;;5046055;28;20073;-79
2023/09/13 12:21:06;;;;;;;5.18;1.70;;;19.10;71.30;;;;;;5042155;28;20571;-79
2023/09/13 12:23:37;;;;;;;4.33;1.50;;;19.20;71.50;;;;;;5050228;28;20073;-79
2023/09/13 12:26:07;;;;;;;5.25;1.52;;;19.30;71.70;;;;;;5048922;28;21050;-80
2023/09/13 12:28:36;;;;;;;5.50;1.60;;;19.30;71.80;;;;;;5049673;28;20054;-78
2023/09/13 12:31:07;;;;;;;4.10;1.27;;;19.40;71.50;;;;;;5046105;28;20054;-79
2023/09/13 12:33:37;;;;;;;5.25;1.30;;;19.50;71.30;;;;;;5044209;28;20050;-79
2023/09/13 12:36:05;;;;;;;5.60;1.50;;;19.50;70.80;;;;;;5037472;28;20041;-79
2023/09/13 12:38:33;;;;;;;5.28;1.30;;;19.50;70.60;;;;;;5034301;28;20262;-79
2023/09/13 12:41:00;;;;;;;5.03;1.20;;;19.70;69.60;;;;;;5048394;28;20060;-79
2023/09/13 12:43:29;;;;;;;5.28;1.10;;;19.70;69.50;;;;;;5049802;28;20186;-79
2023/09/13 12:45:56;;;;;;;4.28;1.10;;;19.70;69.10;;;;;;5031818;28;20057;-79
2023/09/13 12:48:25;;;;;;;4.20;1.10;;;19.70;69.00;;;;;;5049042;28;20064;-79
2023/09/13 12:50:54;;;;;;;5.13;1.42;;;19.80;69.50;;;;;;5047605;28;20253;-80
2023/09/13 12:53:22;;;;;;;3.55;0.90;;;19.90;69.20;;;;;;5043641;28;20112;-79
2023/09/13 12:55:49;;;;;;;4.05;1.13;;;20.00;69.00;;;;;;5048915;28;20983;-79
2023/09/13 12:58:16;;;;;;;4.22;1.10;;;20.00;69.20;;;;;;5046876;28;20057;-79
2023/09/13 13:00:53;;;;;;;5.17;1.20;;;20.00;68.10;;;;;;5051780;28;20121;-79
2023/09/13 13:03:24;;;;;;;6.07;1.30;;;20.10;68.00;;;;;;5041709;28;20276;-80
2023/09/13 13:05:55;;;;;;;4.22;0.93;;;20.10;67.70;;;;;;5045799;28;20053;-79
2023/09/13 13:08:32;;;;;;;5.90;1.33;;;20.10;67.90;;;;;;5047793;28;20057;-78
2023/09/13 13:11:02;;;;;;;8.00;1.20;;;20.20;67.60;;;;;;5047285;28;20053;-78
2023/09/13 13:13:33;;;;;;;4.30;1.17;;;20.20;66.60;;;;;;5047327;28;20049;-78
2023/09/13 13:16:03;;;;;;;5.40;1.33;;;20.30;66.80;;;;;;5045876;28;20335;-78
2023/09/13 13:18:31;;;;;;;5.85;1.25;;;20.30;67.30;;;;;;5043542;28;21027;-78
2023/09/13 13:20:59;;;;;;;5.05;1.35;;;20.30;67.20;;;;;;5050662;28;20069;-78
2023/09/13 13:23:26;;;;;;;4.63;1.00;;;20.30;66.70;;;;;;5046716;28;20057;-79
2023/09/13 13:25:53;;;;;;;5.13;1.17;;;20.30;66.00;;;;;;5049114;28;20057;-79
2023/09/13 13:28:21;;;;;;;4.88;1.08;;;20.30;66.30;;;;;;5048915;28;20713;-79
2023/09/13 13:30:48;;;;;;;4.30;1.00;;;20.20;66.70;;;;;;5043148;28;20057;-79
2023/09/13 13:33:15;;;;;;;4.85;0.90;;;20.20;66.30;;;;;;5045307;28;20054;-79
2023/09/13 13:35:43;;;;;;;6.80;1.17;;;20.20;66.40;;;;;;5054176;28;20061;-80
2023/09/13 13:38:13;;;;;;;8.33;1.23;;;20.10;66.70;;;;;;5051874;28;20588;-81
2023/09/13 13:40:40;;;;;;;3.75;0.90;;;20.10;66.30;;;;;;5051730;28;21064;-80
2023/09/13 13:43:08;;;;;;;5.57;1.30;;;20.10;66.40;;;;;;5051249;28;20585;-80
2023/09/13 13:45:35;;;;;;;5.47;1.27;;;20.20;66.50;;;;;;5068676;28;20065;-80
2023/09/13 13:48:03;;;;;;;6.38;1.08;;;20.20;66.50;;;;;;5052535;28;20138;-80
2023/09/13 13:50:30;;;;;;;6.70;1.20;;;20.20;66.40;;;;;;5035242;28;20059;-80
2023/09/13 13:52:57;;;;;;;5.00;0.95;;;20.20;66.40;;;;;;5070638;28;20283;-80
2023/09/13 13:55:25;;;;;;;5.90;0.93;;;20.20;66.00;;;;;;5067535;28;20072;-80
2023/09/13 13:57:53;;;;;;;4.57;1.00;;;20.10;65.40;;;;;;5049787;28;20166;-79
2023/09/13 14:00:20;;;;;;;5.97;0.90;;;20.10;66.10;;;;;;5068494;28;20155;-79
2023/09/13 14:02:47;;;;;;;4.97;1.40;;;20.10;65.90;;;;;;5069055;28;20053;-80
2023/09/13 14:05:15;;;;;;;7.72;1.30;;;20.10;65.70;;;;;;5050221;28;20276;-78
2023/09/13 14:07:42;;;;;;;5.72;1.17;;;20.10;65.50;;;;;;5050178;28;20052;-78
2023/09/13 14:10:09;;;;;;;5.32;1.20;;;20.10;65.50;;;;;;5069270;28;20137;-77
2023/09/13 14:12:37;;;;;;;6.00;0.95;;;20.10;65.40;;;;;;5052926;28;20049;-77
2023/09/13 14:15:06;;;;;;;7.07;1.27;;;20.00;65.30;;;;;;5058517;28;20180;-77
2023/09/13 14:17:33;;;;;;;7.95;1.20;;;20.00;65.40;;;;;;5055325;28;20288;-76
2023/09/13 14:20:00;;;;;;;7.10;1.20;;;20.00;64.70;;;;;;5057440;28;20076;-77
2023/09/13 14:22:27;;;;;;;6.15;1.20;;;20.00;64.50;;;;;;5073035;28;20079;-77
2023/09/13 14:24:54;;;;;;;8.38;1.10;;;19.90;64.90;;;;;;5073417;28;20131;-78
2023/09/13 14:27:22;;;;;;;6.17;1.30;;;19.90;64.70;;;;;;5045634;28;20045;-78
2023/09/13 14:29:51;;;;;;;5.90;1.10;;;19.80;64.60;;;;;;5058447;28;20256;-77
2023/09/13 14:32:18;;;;;;;7.13;1.13;;;19.80;64.70;;;;;;5052894;28;20128;-78
2023/09/13 14:34:52;;;;;;;6.88;1.20;;;19.70;64.80;;;;;;5055684;28;20107;-78
2023/09/13 14:37:19;;;;;;;6.60;1.00;;;19.70;64.80;;;;;;5026613;28;20053;-77
2023/09/13 14:39:47;;;;;;;6.00;1.57;;;19.70;65.00;;;;;;5032537;28;20069;-77
2023/09/13 14:42:16;;;;;;;8.07;1.45;;;19.70;65.20;;;;;;5034620;28;20307;-76
2023/09/13 14:44:43;;;;;;;4.20;0.98;;;19.70;65.10;;;;;;5052501;28;20906;-77
2023/09/13 14:47:11;;;;;;;5.90;1.15;;;19.70;65.50;;;;;;5034552;28;20181;-76
2023/09/13 14:53:15;;;;;;;8.77;1.53;;;19.80;65.70;;;;;;4945810;28;20155;-81
2023/09/13 14:55:42;;;;;;;7.55;1.10;;;19.80;65.80;;;;;;4949117;28;20703;-79
2023/09/13 14:58:09;;;;;;;6.68;1.23;;;19.70;65.80;;;;;;4947201;28;20091;-78
2023/09/13 15:00:36;;;;;;;8.45;1.30;;;19.80;66.10;;;;;;4962303;28;20052;-78
2023/09/13 15:03:05;;;;;;;7.60;1.15;;;19.80;66.10;;;;;;4946652;28;20549;-78
2023/09/13 15:05:31;;;;;;;6.50;1.20;;;19.80;66.10;;;;;;4965238;28;20202;-78
2023/09/13 15:07:58;;;;;;;5.47;1.15;;;19.80;65.90;;;;;;4944228;28;20728;-78
2023/09/13 15:10:26;;;;;;;5.70;1.10;;;19.80;65.80;;;;;;4932403;28;20048;-78
2023/09/13 15:12:53;;;;;;;7.25;1.20;;;19.80;66.10;;;;;;4924868;29;20628;-79
2023/09/13 15:15:20;;;;;;;6.45;1.20;;;19.70;65.90;;;;;;4943142;28;20566;-79
2023/09/13 15:17:47;;;;;;;7.73;1.43;;;19.70;65.80;;;;;;4962621;28;20534;-81
2023/09/13 15:20:17;;;;;;;6.88;1.10;;;19.70;66.20;;;;;;4946870;28;20328;-80
2023/09/13 15:22:44;;;;;;;8.30;1.27;;;19.70;66.00;;;;;;4963085;28;20060;-81
2023/09/13 15:25:12;;;;;;;6.00;1.50;;;19.70;65.80;;;;;;4947964;28;20062;-79
2023/09/13 15:27:39;;;;;;;5.43;1.10;;;19.70;65.50;;;;;;4932467;29;20122;-80
2023/09/13 15:30:08;;;;;;;9.60;1.60;;;19.70;65.00;;;;;;4964134;28;20608;-80
2023/09/13 15:32:35;;;;;;;6.85;1.23;;;19.70;65.00;;;;;;4964434;28;20284;-80
2023/09/13 15:35:03;;;;;;;5.28;1.10;;;19.70;64.80;;;;;;4947343;28;20056;-78
2023/09/13 15:37:31;;;;;;;6.00;1.20;;;19.70;64.80;;;;;;4929269;28;20079;-79
2023/09/13 15:39:58;;;;;;;6.55;1.40;;;19.70;64.30;;;;;;4940254;28;20048;-79
2023/09/13 15:42:25;;;;;;;7.27;1.27;;;19.70;64.00;;;;;;4938149;28;20610;-79
2023/09/13 15:44:52;;;;;;;6.22;1.25;;;19.70;63.80;;;;;;4957151;28;20261;-80
2023/09/13 15:47:19;;;;;;;5.63;1.08;;;19.70;63.40;;;;;;4948872;28;20079;-78
2023/09/13 15:49:47;;;;;;;6.25;1.30;;;19.70;63.40;;;;;;4959880;28;20056;-79
2023/09/13 15:52:14;;;;;;;5.18;1.25;;;19.70;63.40;;;;;;4941114;28;20067;-79
2023/09/13 15:54:42;;;;;;;4.80;1.20;;;19.70;63.60;;;;;;4943496;28;20067;-79
2023/09/13 15:57:10;;;;;;;6.70;1.02;;;19.70;63.40;;;;;;4933181;29;20269;-79
2023/09/13 15:59:37;;;;;;;6.18;1.40;;;19.70;63.70;;;;;;4942866;28;20044;-79
2023/09/13 16:02:04;;;;;;;6.22;1.20;;;19.70;63.60;;;;;;4947729;28;20156;-78
2023/09/13 16:04:31;;;;;;;6.57;1.38;;;19.70;63.20;;;;;;4946778;28;20156;-79
2023/09/13 16:06:58;;;;;;;5.87;1.57;;;19.60;63.00;;;;;;4943710;28;20048;-78
2023/09/13 16:09:25;;;;;;;5.75;1.08;;;19.50;62.80;;;;;;4947726;28;20265;-80
2023/09/13 16:11:53;;;;;;;5.35;1.23;;;19.50;63.30;;;;;;4930310;29;20213;-79
2023/09/13 16:14:32;;;;;;;6.55;1.80;;;19.50;63.10;;;;;;4934537;28;20739;-81
2023/09/13 16:16:59;;;;;;;6.47;1.48;;;19.50;63.80;;;;;;4947773;28;20954;-81
2023/09/13 16:19:26;;;;;;;5.57;1.13;;;19.50;63.50;;;;;;4961067;28;20151;-80
2023/09/13 16:21:53;;;;;;;6.20;1.40;;;19.60;63.10;;;;;;4963329;28;20313;-80
2023/09/13 16:24:20;;;;;;;7.53;1.40;;;19.50;62.70;;;;;;4965098;28;20139;-80
2023/09/13 16:26:47;;;;;;;5.70;1.40;;;19.50;62.70;;;;;;4948494;28;20280;-81
2023/09/13 16:29:15;;;;;;;5.40;1.20;;;19.50;62.70;;;;;;4963231;28;20059;-81
2023/09/13 16:31:42;;;;;;;6.17;1.30;;;19.50;62.60;;;;;;4963053;28;20136;-83
2023/09/13 16:34:09;;;;;;;7.85;1.63;;;19.50;62.80;;;;;;4931190;29;20938;-81
2023/09/13 16:36:40;;;;;;;6.00;1.40;;;19.50;63.00;;;;;;4961001;28;20084;-82
2023/09/13 16:39:07;;;;;;;7.10;1.30;;;19.50;63.40;;;;;;4960892;28;20071;-81
2023/09/13 16:41:36;;;;;;;6.05;1.20;;;19.50;63.50;;;;;;4962633;28;20083;-81
2023/09/13 16:44:04;;;;;;;5.93;1.27;;;19.50;63.60;;;;;;4962872;28;20052;-81
2023/09/13 16:46:32;;;;;;;6.22;1.38;;;19.50;63.30;;;;;;4928239;29;20391;-83
2023/09/13 16:48:59;;;;;;;6.20;1.48;;;19.50;63.10;;;;;;4946602;28;20052;-85
2023/09/13 16:51:27;;;;;;;5.43;1.40;;;19.50;63.20;;;;;;4964365;28;20115;-79
2023/09/13 16:53:56;;;;;;;7.07;1.48;;;19.50;63.10;;;;;;4930360;28;20558;-79
2023/09/13 16:56:23;;;;;;;4.83;1.20;;;19.50;62.90;;;;;;4951379;28;20474;-78
2023/09/13 16:58:50;;;;;;;7.65;1.48;;;19.50;62.70;;;;;;4959492;28;20249;-78
2023/09/13 17:01:17;;;;;;;6.43;1.17;;;19.50;62.90;;;;;;4961866;28;20083;-79
2023/09/13 17:03:48;;;;;;;7.30;1.35;;;19.50;63.00;;;;;;4947526;28;20083;-81
2023/09/13 17:06:15;;;;;;;7.70;1.25;;;19.50;63.00;;;;;;4963839;28;20067;-79
2023/09/13 17:08:42;;;;;;;8.20;1.70;;;19.50;63.30;;;;;;4946492;28;20076;-78
2023/09/13 17:11:12;;;;;;;6.38;1.20;;;19.50;63.30;;;;;;4927885;29;20419;-79
2023/09/13 17:13:40;;;;;;;6.85;1.60;;;19.50;63.30;;;;;;4940958;28;20052;-78
2023/09/13 17:16:07;;;;;;;6.40;1.38;;;19.50;63.40;;;;;;4947178;28;20060;-78
2023/09/13 17:18:34;;;;;;;7.78;1.17;;;19.50;63.60;;;;;;4939623;28;20099;-79
2023/09/13 17:21:13;;;;;;;6.23;1.30;;;19.50;63.60;;;;;;4941823;28;20092;-80
2023/09/13 17:23:40;;;;;;;6.45;1.10;;;19.50;63.60;;;;;;4959609;28;20288;-80
2023/09/13 17:26:07;;;;;;;8.00;1.38;;;19.50;63.60;;;;;;4930747;28;20055;-79
2023/09/13 17:28:35;;;;;;;7.88;1.50;;;19.50;63.60;;;;;;4963967;28;20818;-80
2023/09/13 17:31:02;;;;;;;6.95;1.70;;;19.50;63.30;;;;;;4956581;28;20545;-80
2023/09/13 17:33:29;;;;;;;6.10;1.13;;;19.40;63.10;;;;;;4948349;28;20060;-79
2023/09/13 17:35:56;;;;;;;6.57;1.23;;;19.40;63.20;;;;;;4945985;28;20257;-78
2023/09/13 17:38:25;;;;;;;5.32;1.20;;;19.50;63.20;;;;;;4935555;28;20120;-78
2023/09/13 17:40:53;;;;;;;6.25;1.20;;;19.50;63.10;;;;;;4962490;28;20056;-82
2023/09/13 17:43:21;;;;;;;7.18;1.60;;;19.50;63.10;;;;;;4932506;28;20147;-77
2023/09/13 17:45:49;;;;;;;7.37;1.63;;;19.50;63.00;;;;;;4947791;28;20082;-77
2023/09/13 17:48:16;;;;;;;8.77;1.50;;;19.40;62.80;;;;;;4930646;28;20281;-78
2023/09/13 17:50:43;;;;;;;7.72;1.35;;;19.40;62.50;;;;;;4964901;28;20146;-80
2023/09/13 17:53:10;;;;;;;6.80;1.38;;;19.40;62.30;;;;;;4930894;28;20135;-79
2023/09/13 17:55:38;;;;;;;6.15;1.23;;;19.40;62.20;;;;;;4916192;29;20537;-80
2023/09/13 17:58:05;;;;;;;7.77;1.27;;;19.40;62.00;;;;;;4883944;29;20144;-81
2023/09/13 18:00:35;;;;;;;7.93;1.40;;;19.40;62.00;;;;;;4915095;29;20300;-80
2023/09/13 18:03:02;;;;;;;6.03;1.40;;;19.40;62.20;;;;;;4910434;29;20114;-81
2023/09/13 18:05:33;;;;;;;6.32;1.58;;;19.30;62.20;;;;;;4919579;29;20159;-82
2023/09/13 18:08:01;;;;;;;7.75;1.60;;;19.30;61.90;;;;;;4895104;29;20060;-81
2023/09/13 18:10:28;;;;;;;7.07;1.30;;;19.30;61.90;;;;;;4912659;29;20136;-81
2023/09/13 18:12:56;;;;;;;6.15;1.50;;;19.30;62.00;;;;;;4913098;29;20258;-82
2023/09/13 18:15:26;;;;;;;7.93;1.10;;;19.20;62.00;;;;;;4898766;29;20928;-81
2023/09/13 18:17:53;;;;;;;7.53;1.38;;;19.20;62.20;;;;;;4930884;29;20064;-82
2023/09/13 18:20:20;;;;;;;8.15;1.40;;;19.20;62.50;;;;;;4915114;29;20065;-81
2023/09/13 18:22:47;;;;;;;6.07;1.27;;;19.10;62.60;;;;;;4913942;29;20532;-81
2023/09/13 18:25:15;;;;;;;4.20;1.20;;;19.10;62.80;;;;;;4915011;29;20321;-81
2023/09/13 18:27:42;;;;;;;6.85;1.48;;;19.10;63.00;;;;;;4930769;29;20057;-80
2023/09/13 18:30:12;;;;;;;5.63;1.40;;;19.00;63.00;;;;;;4915085;29;20174;-81
2023/09/13 18:32:39;;;;;;;6.28;1.20;;;19.00;62.90;;;;;;4897909;29;20141;-82
2023/09/13 18:35:08;;;;;;;4.57;1.07;;;19.00;63.00;;;;;;4930248;29;20151;-79
2023/09/13 18:37:35;;;;;;;6.53;1.20;;;18.90;63.00;;;;;;4914273;29;20258;-78
2023/09/13 18:40:03;;;;;;;6.70;1.50;;;18.90;63.10;;;;;;4915921;29;20169;-81
2023/09/13 18:42:31;;;;;;;5.00;1.33;;;18.80;63.00;;;;;;4909305;29;20225;-80
2023/09/13 18:44:58;;;;;;;7.60;1.40;;;18.80;63.00;;;;;;4912203;29;20109;-79
2023/09/13 18:47:27;;;;;;;5.37;1.20;;;18.70;63.10;;;;;;4913492;29;20510;-79
2023/09/13 18:49:54;;;;;;;4.18;0.90;;;18.70;63.00;;;;;;4923838;29;20379;-79
2023/09/13 18:52:21;;;;;;;5.35;1.45;;;18.60;63.10;;;;;;4943401;28;20079;-80
2023/09/13 18:54:48;;;;;;;6.32;1.20;;;18.60;63.20;;;;;;4946605;28;20143;-80
2023/09/13 18:57:16;;;;;;;5.93;1.20;;;18.60;63.20;;;;;;4935715;28;20079;-80
2023/09/13 18:59:43;;;;;;;7.60;1.37;;;18.50;63.20;;;;;;4959604;28;20971;-78
2023/09/13 19:02:10;;;;;;;6.40;1.40;;;18.40;63.30;;;;;;4951517;28;20368;-78
2023/09/13 19:04:38;;;;;;;4.68;1.10;;;18.40;63.40;;;;;;4935647;28;20163;-78
2023/09/13 19:07:05;;;;;;;4.88;0.90;;;18.30;63.70;;;;;;4964247;28;20131;-78
2023/09/13 19:09:34;;;;;;;5.97;1.40;;;18.30;63.70;;;;;;4941699;28;20106;-78
2023/09/13 19:12:02;;;;;;;5.60;1.50;;;18.20;63.70;;;;;;4948885;28;20143;-77
2023/09/13 19:14:30;;;;;;;5.47;1.27;;;18.20;63.70;;;;;;4949082;28;20676;-78
2023/09/13 19:17:07;;;;;;;6.15;1.50;;;18.20;63.80;;;;;;4933300;28;20064;-77
2023/09/13 19:19:48;;;;;;;4.32;1.35;;;18.10;64.00;;;;;;4944579;28;20985;-79
2023/09/13 19:22:15;;;;;;;6.93;1.52;;;18.10;64.00;;;;;;4932844;28;20474;-79
2023/09/13 19:24:42;;;;;;;4.87;1.10;;;18.00;64.10;;;;;;4921109;28;20056;-80
2023/09/13 19:27:09;;;;;;;6.53;1.27;;;18.00;64.10;;;;;;4957571;28;20264;-80
2023/09/13 19:29:37;;;;;;;5.80;1.30;;;17.90;64.20;;;;;;4959820;28;21059;-81
2023/09/13 19:32:05;;;;;;;5.47;1.30;;;17.80;64.10;;;;;;4947334;28;20112;-83
2023/09/13 19:34:34;;;;;;;6.78;1.30;;;17.80;64.20;;;;;;4952079;28;20061;-82
2023/09/13 19:37:02;;;;;;;6.23;1.33;;;17.80;64.10;;;;;;4968245;28;20052;-81
2023/09/13 19:39:29;;;;;;;7.18;1.55;;;17.80;64.20;;;;;;4942849;28;20692;-80
2023/09/13 19:41:56;;;;;;;7.13;1.60;;;17.60;64.40;;;;;;4946144;28;20052;-82
2023/09/13 19:44:24;;;;;;;4.50;1.08;;;17.50;64.50;;;;;;4964233;28;20052;-82
2023/09/13 19:46:54;;;;;;;6.50;1.65;;;17.50;64.60;;;;;;4963228;28;20163;-80
2023/09/13 19:49:22;;;;;;;5.47;1.33;;;17.50;64.80;;;;;;4963367;28;20954;-82
2023/09/13 19:51:49;;;;;;;5.70;1.15;;;17.40;65.00;;;;;;4940993;28;20281;-82
2023/09/13 19:54:17;;;;;;;5.53;1.15;;;17.40;65.10;;;;;;4944826;28;20066;-82
2023/09/13 19:56:44;;;;;;;6.28;1.27;;;17.30;65.10;;;;;;4933567;28;20127;-82
2023/09/13 19:59:11;;;;;;;5.00;1.02;;;17.20;65.10;;;;;;4945342;28;20056;-80
2023/09/13 20:01:38;;;;;;;6.00;1.17;;;17.20;65.20;;;;;;4942544;28;20106;-81
2023/09/13 20:04:06;;;;;;;5.60;1.20;;;17.20;65.20;;;;;;4942482;28;20277;-81
2023/09/13 20:06:35;;;;;;;5.97;1.40;;;17.10;65.20;;;;;;4944902;28;20136;-81
2023/09/13 20:09:03;;;;;;;6.22;1.17;;;17.00;65.20;;;;;;4963360;28;20066;-82
2023/09/13 20:11:35;;;;;;;5.32;1.25;;;17.00;65.40;;;;;;4928640;28;20071;-82
2023/09/13 20:14:03;;;;;;;6.67;1.20;;;17.00;65.50;;;;;;4946662;28;20056;-81
2023/09/13 20:16:30;;;;;;;5.13;1.23;;;16.90;65.60;;;;;;4941455;28;20267;-80
2023/09/13 20:18:58;;;;;;;3.42;0.98;;;16.90;65.80;;;;;;4925990;28;20078;-78
2023/09/13 20:21:27;;;;;;;5.13;1.00;;;16.90;65.90;;;;;;4933027;28;20056;-77
2023/09/13 20:23:55;;;;;;;4.32;1.00;;;16.80;66.10;;;;;;4945277;28;20052;-78
2023/09/13 20:26:24;;;;;;;5.17;1.20;;;16.80;66.20;;;;;;4944415;28;20844;-77
2023/09/13 20:28:53;;;;;;;6.18;1.80;;;16.70;66.30;;;;;;4945898;28;20334;-77
2023/09/13 20:31:25;;;;;;;5.55;1.48;;;16.70;66.40;;;;;;4948411;28;20585;-77
2023/09/13 20:33:52;;;;;;;6.90;1.67;;;16.60;66.50;;;;;;4944031;28;20135;-78
2023/09/13 20:36:19;;;;;;;6.20;1.85;;;16.60;66.60;;;;;;4926574;28;20503;-77
2023/09/13 20:38:46;;;;;;;3.77;1.10;;;16.50;66.70;;;;;;4935730;28;20061;-76
2023/09/13 20:41:14;;;;;;;4.75;1.48;;;16.50;66.80;;;;;;4929967;28;20344;-79
2023/09/13 20:43:41;;;;;;;4.05;1.50;;;16.40;66.90;;;;;;4941669;28;20055;-79
2023/09/13 20:46:10;;;;;;;6.10;1.70;;;16.30;67.20;;;;;;4936863;28;20131;-79
2023/09/13 20:48:37;;;;;;;8.93;1.70;;;16.20;67.30;;;;;;4959039;28;20054;-78
2023/09/13 20:51:04;;;;;;;4.73;1.33;;;16.20;67.30;;;;;;4956907;28;20131;-77
2023/09/13 20:53:33;;;;;;;5.65;1.90;;;16.20;67.30;;;;;;4941587;28;20323;-77
2023/09/13 20:56:00;;;;;;;5.25;1.65;;;16.10;67.40;;;;;;4956852;28;20582;-78
2023/09/13 20:58:27;;;;;;;5.15;1.67;;;16.10;67.50;;;;;;4942588;28;20054;-78
2023/09/13 21:00:54;;;;;;;6.13;1.42;;;16.10;67.40;;;;;;4955359;28;20624;-78
2023/09/13 21:03:23;;;;;;;7.70;1.63;;;16.00;67.40;;;;;;4931386;28;21086;-78
2023/09/13 21:05:55;;;;;;;5.57;1.60;;;16.00;67.30;;;;;;4946031;28;20263;-77
2023/09/13 21:08:22;;;;;;;4.93;1.60;;;16.00;67.30;;;;;;4965261;28;20900;-78
2023/09/13 21:10:49;;;;;;;4.05;1.45;;;16.00;67.30;;;;;;4946233;28;20083;-80
2023/09/13 21:13:16;;;;;;;5.47;1.60;;;16.00;67.30;;;;;;4957161;28;20063;-80
2023/09/13 21:15:43;;;;;;;5.63;1.63;;;16.00;67.30;;;;;;4964743;28;20565;-79
2023/09/13 21:18:11;;;;;;;4.88;1.58;;;15.90;67.30;;;;;;4944252;28;20408;-79
2023/09/13 21:20:39;;;;;;;4.68;1.67;;;15.90;67.40;;;;;;4947525;28;20511;-79
2023/09/13 21:23:07;;;;;;;4.80;1.50;;;15.80;67.50;;;;;;4960385;28;20164;-79
2023/09/13 21:25:34;;;;;;;5.72;1.90;;;15.80;67.50;;;;;;4944911;28;20048;-79
2023/09/13 21:28:03;;;;;;;5.27;1.93;;;15.80;67.50;;;;;;4944685;28;20053;-79
2023/09/13 21:30:30;;;;;;;5.55;1.80;;;15.80;67.60;;;;;;4941800;28;20292;-79
2023/09/13 21:32:57;;;;;;;4.45;1.48;;;15.70;67.60;;;;;;4945720;28;20076;-79
2023/09/13 21:35:24;;;;;;;5.68;1.67;;;15.70;67.70;;;;;;4932080;28;20143;-79
2023/09/13 21:37:53;;;;;;;5.28;1.42;;;15.60;67.70;;;;;;4934255;28;20587;-79
2023/09/13 21:40:20;;;;;;;6.57;1.70;;;15.60;67.70;;;;;;4947429;28;20139;-79
2023/09/13 21:42:48;;;;;;;3.55;1.13;;;15.60;67.70;;;;;;4947399;28;20264;-79
2023/09/13 21:46:19;;;;;;;4.53;1.30;;;15.60;67.80;;;;;;4944025;28;20848;-78
2023/09/13 21:48:46;;;;;;;3.30;1.40;;;15.50;67.90;;;;;;4944055;28;20168;-79
2023/09/13 21:51:13;;;;;;;4.65;1.20;;;15.50;68.00;;;;;;4942983;28;20084;-79
2023/09/13 21:53:42;;;;;;;4.70;1.40;;;15.50;68.10;;;;;;4943711;28;20044;-79
2023/09/13 21:56:09;;;;;;;6.15;1.60;;;15.50;68.10;;;;;;4948894;28;20245;-79
2023/09/13 21:58:36;;;;;;;5.05;1.52;;;15.40;68.20;;;;;;4936180;28;20102;-79